Flight Track Log - Related Links

Times and Time Zones

All times are in EST time to prevent confusion due to time zone crossing. See the SWA4108 flight status page for this flight to view local times or setup timezone preferences in your user account.

Time Position Orientation Groundspeed Altitude Reporting Facility
EST Latitude Longitude Course Direction KTS MPH feet Rate Location/Type
Thu 12:41:04 AM 37.6667 -122.3667 345° North 182 209 1,900  Level Northern Cal TRACON
Thu 12:41:58 AM 37.7167 -122.3833 345° North 224 258 4,600 3,050 Climbing Northern Cal TRACON
Thu 12:43:04 AM 37.6667 -122.4000 195° South 275 316 8,000 3,150 Climbing Northern Cal TRACON
Thu 12:43:58 AM 37.6000 -122.3333 142° Southeast 320 368 10,900 3,000 Climbing Northern Cal TRACON
Thu 12:44:28 AM 37.5739 -122.2992 134° Southeast 316 364 12,200 2,967 Climbing Oakland Center
Thu 12:45:29 AM 37.5039 -122.2103 135° Southeast 347 399 15,400 2,705 Climbing Oakland Center
Thu 12:46:30 AM 37.4264 -122.1136 135° Southeast 380 437 17,700 2,705 Climbing Oakland Center
Thu 12:47:31 AM 37.3453 -122.0136 136° Southeast 402 463 20,900 2,607 Climbing Oakland Center
Thu 12:48:32 AM 37.2622 -121.9111 135° Southeast 413 475 23,000 2,479 Climbing Oakland Center
Thu 12:49:32 AM 37.1578 -121.7822 135° Southeast 441 507 25,900 2,281 Climbing Oakland Center
Thu 12:50:33 AM 37.0825 -121.6914 136° Southeast 450 518 27,600 1,820 Climbing Oakland Center
Thu 12:51:34 AM 36.9869 -121.5833 138° Southeast 459 528 29,600 2,066 Climbing Oakland Center
Thu 12:52:35 AM 36.8792 -121.4414 133° Southeast 468 539 31,800 1,918 Climbing Oakland Center
Thu 12:53:36 AM 36.7803 -121.3269 137° Southeast 478 550 33,500 1,785 Climbing Oakland Center
Thu 12:54:36 AM 36.6844 -121.2139 137° Southeast 476 548 35,400 1,736 Climbing Oakland Center
Thu 12:55:37 AM 36.5917 -121.0975 135° Southeast 473 544 37,000 787 Climbing Oakland Center
Thu 12:56:38 AM 36.4967 -120.9861 137° Southeast 471 542 37,000  Level Oakland Center
Thu 12:57:39 AM 36.4028 -120.8725 136° Southeast 470 541 37,000  Level Oakland Center
Thu 12:58:39 AM 36.3094 -120.7600 136° Southeast 469 540 37,000  Level Oakland Center
Thu 12:59:40 AM 36.2139 -120.6489 137° Southeast 469 540 37,000  Level Oakland Center
Thu 01:00:41 AM 36.1208 -120.5367 136° Southeast 468 539 37,000  Level Oakland Center
Thu 01:01:42 AM 36.0269 -120.4236 136° Southeast 468 539 37,000  Level Oakland Center
Thu 01:02:42 AM 35.9322 -120.3128 137° Southeast 469 540 37,000  Level Oakland Center
Thu 01:03:43 AM 35.8378 -120.2025 137° Southeast 465 535 37,000  Level Oakland Center
Thu 01:04:44 AM 35.7442 -120.0903 136° Southeast 465 535 37,000  Level Oakland Center
Thu 01:05:45 AM 35.6492 -119.9808 137° Southeast 465 535 37,000  Level Oakland Center
Thu 01:06:45 AM 35.5439 -119.8889 145° Southeast 460 529 37,000 -136 Level Oakland Center
Thu 01:07:57 AM 35.4175 -119.7797 145° Southeast 458 527 36,700 -538 Descending Los Angeles Center
Thu 01:09:10 AM 35.3114 -119.6894 145° Southeast 461 531 35,700 -940 Descending Los Angeles Center
Thu 01:10:11 AM 35.1853 -119.5808 145° Southeast 460 529 34,600 -1,033 Descending Los Angeles Center
Thu 01:11:12 AM 35.0808 -119.4922 145° Southeast 459 528 33,600 -934 Descending Los Angeles Center
Thu 01:12:13 AM 34.9756 -119.4025 145° Southeast 459 528 32,700 -1,770 Descending Los Angeles Center
Thu 01:13:14 AM 34.8686 -119.3131 146° Southeast 463 533 30,000 -2,803 Descending Los Angeles Center
Thu 01:14:15 AM 34.7622 -119.2231 145° Southeast 465 535 27,000 -2,687 Descending Los Angeles Center
Thu 01:15:28 AM 34.6414 -119.1192 145° Southeast 447 514 24,000 -2,687 Descending Los Angeles Center
Thu 01:16:29 AM 34.5264 -119.0228 145° Southeast 423 487 21,000 -2,656 Descending Los Angeles Center
Thu 01:17:30 AM 34.4336 -118.9450 145° Southeast 409 471 18,600 -2,361 Descending Los Angeles Center
Thu 01:18:31 AM 34.3422 -118.8750 148° Southeast 387 445 16,200 -2,410 Descending Los Angeles Center
Thu 01:19:32 AM 34.2406 -118.8386 164° South 379 436 13,700 -2,164 Descending Los Angeles Center
Thu 01:20:33 AM 34.1692 -118.7572 137° Southeast 365 420 11,800 -1,820 Descending Los Angeles Center
Thu 01:21:34 AM 34.1169 -118.6586 123° Southeast 351 404 10,000 -1,426 Descending Los Angeles Center
Thu 01:22:35 AM 34.0639 -118.5583 123° Southeast 324 373 8,900 -1,230 Descending Los Angeles Center
Thu 01:23:36 AM 34.0192 -118.4728 122° Southeast 305 351 7,500 -1,131 Descending Los Angeles Center
Thu 01:24:37 AM 34.0206 -118.3953 89° East 273 314 6,600 -885 Descending Los Angeles Center
Thu 01:25:38 AM 34.0275 -118.3275 83° East 228 262 5,700 -1,525 Descending Los Angeles Center
Thu 01:26:39 AM 33.9936 -118.2908 138° Southeast 197 227 3,500 -2,066 Descending Los Angeles Center
Thu 01:27:40 AM 33.9606 -118.3197 216° Southwest 182 209 1,500 -1,426 Descending Los Angeles Center
Thu 01:28:41 AM 33.9564 -118.3753 265° West 152 175 600 -645 Descending Los Angeles Center
Thu 01:29:41 AM 33.9511 -118.4128 260° West 143 165 200 -400 Descending Los Angeles Center
Thu 01:31:00 AM 33.9425 -118.4081 228° Southwest  Level Estimated

Login

Don't have an account? Register now (free) for customized features, flight alerts, and more!